createdAt,value
2018-03-23T00:00:12.671Z,19.62
2018-03-23T00:01:12.672Z,19.56
2018-03-23T00:02:12.641Z,19.54
2018-03-23T00:03:12.630Z,19.59
2018-03-23T00:04:12.613Z,19.54
2018-03-23T00:05:12.597Z,19.65
2018-03-23T00:06:12.595Z,19.56
2018-03-23T00:07:12.568Z,19.56
2018-03-23T00:08:12.552Z,19.63
2018-03-23T00:09:12.538Z,19.58
2018-03-23T00:10:12.524Z,19.58
2018-03-23T00:11:12.530Z,19.48
2018-03-23T00:12:12.500Z,19.62
2018-03-23T00:13:12.481Z,19.56
2018-03-23T00:14:12.465Z,19.50
2018-03-23T00:15:12.453Z,19.46
2018-03-23T00:16:12.436Z,19.47
2018-03-23T00:17:12.440Z,19.56
2018-03-23T00:18:12.408Z,19.46
2018-03-23T00:19:12.408Z,19.54
2018-03-23T00:20:12.381Z,19.48
2018-03-23T00:21:12.364Z,19.55
2018-03-23T00:22:12.372Z,19.44
2018-03-23T00:23:12.336Z,19.56
2018-03-23T00:24:12.320Z,19.55
2018-03-23T00:25:12.306Z,19.56
2018-03-23T00:26:12.295Z,19.51
2018-03-23T00:27:12.277Z,19.55
2018-03-23T00:28:12.272Z,19.58
2018-03-23T00:29:12.246Z,19.47
2018-03-23T00:30:12.232Z,19.54
2018-03-23T00:31:12.218Z,19.56
2018-03-23T00:32:12.203Z,19.50
2018-03-23T00:33:12.206Z,19.51
2018-03-23T00:34:12.174Z,19.48
2018-03-23T00:35:12.160Z,19.50
2018-03-23T00:36:12.142Z,19.50
2018-03-23T00:37:12.133Z,19.50
2018-03-23T00:38:12.114Z,19.43
2018-03-23T00:39:12.116Z,19.51
2018-03-23T00:40:12.086Z,19.54
2018-03-23T00:41:12.071Z,19.51
2018-03-23T00:42:12.058Z,19.51
2018-03-23T00:43:12.042Z,19.50
2018-03-23T00:44:12.038Z,19.56
2018-03-23T00:45:12.013Z,19.51
2018-03-23T00:46:11.998Z,19.56
2018-03-23T00:47:11.983Z,19.40
2018-03-23T00:48:11.969Z,19.43
2018-03-23T00:49:11.974Z,19.55
2018-03-23T00:50:11.938Z,19.61
2018-03-23T00:51:11.929Z,19.56
2018-03-23T00:52:11.908Z,19.54
2018-03-23T00:53:11.894Z,19.54
2018-03-23T00:54:11.881Z,19.54
2018-03-23T00:55:11.877Z,19.47
2018-03-23T00:56:11.851Z,19.46
2018-03-23T00:57:11.836Z,19.48
2018-03-23T00:58:11.825Z,19.44
2018-03-23T00:59:11.807Z,19.44
2018-03-23T01:00:11.807Z,19.51
2018-03-23T01:01:11.777Z,19.47
2018-03-23T01:02:11.763Z,19.44
2018-03-23T01:03:11.748Z,19.44
2018-03-23T01:04:11.733Z,19.54
2018-03-23T01:05:11.720Z,19.54
2018-03-23T01:06:11.977Z,19.40
2018-03-23T01:07:11.691Z,19.40
2018-03-23T01:08:11.674Z,19.58
2018-03-23T01:09:11.660Z,19.44
2018-03-23T01:10:11.646Z,19.55
2018-03-23T01:11:11.631Z,19.46
2018-03-23T01:12:11.626Z,19.50
2018-03-23T01:13:11.602Z,19.55
2018-03-23T01:14:11.586Z,19.47
2018-03-23T01:15:11.571Z,19.44
2018-03-23T01:16:11.558Z,19.46
2018-03-23T01:17:11.552Z,19.39
2018-03-23T01:18:11.530Z,19.43
2018-03-23T01:19:11.514Z,19.50
2018-03-23T01:20:11.499Z,19.46
2018-03-23T01:21:11.486Z,19.46
2018-03-23T01:22:11.486Z,19.43
2018-03-23T01:23:11.454Z,19.44
2018-03-23T01:24:11.439Z,19.41
2018-03-23T01:25:11.424Z,19.44
2018-03-23T01:26:11.410Z,19.44
2018-03-23T01:27:11.399Z,19.46
2018-03-23T01:28:11.657Z,19.43
2018-03-23T01:29:11.364Z,19.46
2018-03-23T01:30:11.352Z,19.48
2018-03-23T01:31:11.334Z,19.44
2018-03-23T01:32:11.321Z,19.44
2018-03-23T01:33:11.307Z,19.33
2018-03-23T01:34:11.303Z,19.40
2018-03-23T01:35:11.277Z,19.43
2018-03-23T01:36:11.263Z,19.46
2018-03-23T01:37:11.247Z,19.44
2018-03-23T01:38:11.235Z,19.46
2018-03-23T01:39:11.241Z,19.32
2018-03-23T01:40:11.203Z,19.44
2018-03-23T01:41:11.189Z,19.43
2018-03-23T01:42:11.175Z,19.46
2018-03-23T01:43:11.162Z,19.41
2018-03-23T01:44:11.148Z,19.44
2018-03-23T01:45:11.143Z,19.43
2018-03-23T01:46:11.116Z,19.46
2018-03-23T01:47:11.101Z,19.46
2018-03-23T01:48:11.087Z,19.44
2018-03-23T01:49:11.078Z,19.44
2018-03-23T01:50:11.073Z,19.48
2018-03-23T01:51:11.056Z,19.41
2018-03-23T01:52:11.028Z,19.48
2018-03-23T01:53:11.012Z,19.41
2018-03-23T01:54:10.997Z,19.46
2018-03-23T01:55:10.983Z,19.46
2018-03-23T01:56:10.981Z,19.40
2018-03-23T01:57:10.997Z,19.50
2018-03-23T01:58:10.940Z,19.43
2018-03-23T01:59:10.924Z,19.44
2018-03-23T02:00:10.913Z,19.44
2018-03-23T02:01:10.918Z,19.40
2018-03-23T02:02:10.879Z,19.39
2018-03-23T02:03:10.865Z,19.46
2018-03-23T02:04:10.849Z,19.40
2018-03-23T02:05:10.835Z,19.48
2018-03-23T02:06:10.823Z,19.39
2018-03-23T02:07:10.823Z,19.43
2018-03-23T02:08:10.792Z,19.40
2018-03-23T02:09:10.777Z,19.40
2018-03-23T02:10:10.763Z,19.46
2018-03-23T02:11:10.746Z,19.46
2018-03-23T02:12:10.735Z,19.46
2018-03-23T02:13:10.755Z,19.43
2018-03-23T02:14:10.711Z,19.43
2018-03-23T02:15:10.689Z,19.33
2018-03-23T02:16:10.675Z,19.44
2018-03-23T02:17:10.659Z,19.44
2018-03-23T02:18:10.645Z,19.28
2018-03-23T02:19:10.645Z,19.41
2018-03-23T02:20:10.618Z,19.40
2018-03-23T02:21:10.603Z,19.32
2018-03-23T02:22:10.586Z,19.36
2018-03-23T02:23:10.571Z,19.46
2018-03-23T02:24:10.571Z,19.32
2018-03-23T02:25:10.541Z,19.31
2018-03-23T02:26:10.526Z,19.44
2018-03-23T02:27:10.512Z,19.39
2018-03-23T02:28:10.496Z,19.40
2018-03-23T02:29:10.480Z,19.37
2018-03-23T02:30:10.485Z,19.36
2018-03-23T02:31:10.456Z,19.36
2018-03-23T02:32:10.441Z,19.32
2018-03-23T02:33:10.425Z,19.33
2018-03-23T02:34:10.407Z,19.37
2018-03-23T02:35:10.398Z,19.36
2018-03-23T02:36:10.390Z,19.33
2018-03-23T02:37:10.362Z,19.37
2018-03-23T02:38:10.351Z,19.31
2018-03-23T02:39:10.337Z,19.37
2018-03-23T02:40:10.320Z,19.31
2018-03-23T02:41:10.323Z,19.36
2018-03-23T02:42:10.291Z,19.36
2018-03-23T02:43:10.276Z,19.37
2018-03-23T02:44:10.261Z,19.41
2018-03-23T02:45:10.246Z,19.40
2018-03-23T02:46:10.233Z,19.36
2018-03-23T02:47:10.234Z,19.31
2018-03-23T02:48:10.200Z,19.37
2018-03-23T02:49:10.193Z,19.36
2018-03-23T02:50:10.173Z,19.29
2018-03-23T02:51:10.157Z,19.40
2018-03-23T02:52:10.143Z,19.33
2018-03-23T02:53:10.147Z,19.36
2018-03-23T02:54:10.114Z,19.40
2018-03-23T02:55:10.099Z,19.33
2018-03-23T02:56:10.083Z,19.31
2018-03-23T02:57:10.069Z,19.37
2018-03-23T02:58:10.077Z,19.33
2018-03-23T02:59:10.040Z,19.40
2018-03-23T03:00:10.025Z,19.33
2018-03-23T03:01:10.010Z,19.37
2018-03-23T03:02:10.000Z,19.37
2018-03-23T03:03:09.983Z,19.32
2018-03-23T03:04:09.977Z,19.33
2018-03-23T03:05:09.953Z,19.33
2018-03-23T03:06:09.938Z,19.40
2018-03-23T03:07:09.922Z,19.32
2018-03-23T03:08:09.907Z,19.31
2018-03-23T03:09:09.903Z,19.28
2018-03-23T03:10:09.879Z,19.41
2018-03-23T03:11:09.862Z,19.29
2018-03-23T03:12:09.854Z,19.28
2018-03-23T03:13:09.832Z,19.36
2018-03-23T03:14:09.833Z,19.29
2018-03-23T03:15:09.842Z,19.37
2018-03-23T03:16:09.787Z,19.32
2018-03-23T03:17:09.773Z,19.36
2018-03-23T03:18:09.765Z,19.41
2018-03-23T03:19:09.745Z,19.39
2018-03-23T03:20:09.743Z,19.32
2018-03-23T03:21:09.713Z,19.33
2018-03-23T03:22:09.698Z,19.28
2018-03-23T03:23:09.693Z,19.41
2018-03-23T03:24:09.669Z,19.40
2018-03-23T03:25:09.658Z,19.37
2018-03-23T03:26:09.659Z,19.37
2018-03-23T03:27:09.625Z,19.41
2018-03-23T03:28:09.610Z,19.32
2018-03-23T03:29:09.597Z,19.36
2018-03-23T03:30:09.585Z,19.36
2018-03-23T03:31:09.585Z,19.33
2018-03-23T03:32:09.551Z,19.39
2018-03-23T03:33:09.541Z,19.32
2018-03-23T03:34:09.521Z,19.39
2018-03-23T03:35:09.507Z,19.36
2018-03-23T03:36:09.492Z,19.31
2018-03-23T03:37:09.503Z,19.31
2018-03-23T03:38:09.470Z,19.33
2018-03-23T03:39:09.448Z,19.39
2018-03-23T03:40:09.437Z,19.37
2018-03-23T03:41:09.418Z,19.32
2018-03-23T03:42:09.404Z,19.33
2018-03-23T03:43:09.408Z,19.31
2018-03-23T03:44:09.374Z,19.32
2018-03-23T03:45:09.360Z,19.32
2018-03-23T03:46:09.346Z,19.36
2018-03-23T03:47:09.330Z,19.33
2018-03-23T03:48:09.316Z,19.25
2018-03-23T03:49:09.314Z,19.29
2018-03-23T03:50:09.288Z,19.36
2018-03-23T03:51:09.272Z,19.29
2018-03-23T03:52:09.258Z,19.33
2018-03-23T03:53:09.247Z,19.32
2018-03-23T03:54:09.245Z,19.36
2018-03-23T03:55:09.211Z,19.29
2018-03-23T03:56:09.196Z,19.31
2018-03-23T03:57:09.187Z,19.23
2018-03-23T03:58:09.171Z,19.32
2018-03-23T03:59:09.154Z,19.33
2018-03-23T04:00:09.155Z,19.32
2018-03-23T04:01:09.124Z,19.33
2018-03-23T04:02:09.109Z,19.39
2018-03-23T04:03:09.095Z,19.32
2018-03-23T04:04:09.085Z,19.32
2018-03-23T04:05:09.129Z,19.36
2018-03-23T04:06:09.054Z,19.26
2018-03-23T04:07:09.035Z,19.36
2018-03-23T04:08:09.019Z,19.39
2018-03-23T04:09:09.004Z,19.36
2018-03-23T04:10:08.992Z,19.31
2018-03-23T04:11:08.992Z,19.33
2018-03-23T04:12:08.960Z,19.37
2018-03-23T04:13:08.948Z,19.39
2018-03-23T04:14:08.931Z,19.39
2018-03-23T04:15:08.917Z,19.29
2018-03-23T04:16:08.929Z,19.36
2018-03-23T04:17:08.887Z,19.32
2018-03-23T04:18:08.872Z,19.37
2018-03-23T04:19:08.860Z,19.36
2018-03-23T04:20:08.843Z,19.37
2018-03-23T04:21:08.829Z,19.37
2018-03-23T04:22:08.827Z,19.32
2018-03-23T04:23:08.793Z,19.36
2018-03-23T04:24:08.784Z,19.36
2018-03-23T04:25:08.775Z,19.32
2018-03-23T04:26:08.754Z,19.37
2018-03-23T04:27:08.754Z,19.37
2018-03-23T04:28:08.723Z,19.33
2018-03-23T04:29:08.710Z,19.36
2018-03-23T04:30:08.696Z,19.32
2018-03-23T04:31:08.684Z,19.28
2018-03-23T04:32:08.666Z,19.25
2018-03-23T04:33:08.667Z,19.33
2018-03-23T04:34:08.636Z,19.32
2018-03-23T04:35:08.626Z,19.32
2018-03-23T04:36:08.605Z,19.31
2018-03-23T04:37:08.592Z,19.29
2018-03-23T04:38:08.591Z,19.26
2018-03-23T04:39:08.562Z,19.29
2018-03-23T04:40:08.552Z,19.32
2018-03-23T04:41:08.533Z,19.25
2018-03-23T04:42:08.520Z,19.28
2018-03-23T04:43:08.503Z,19.28
2018-03-23T04:44:08.500Z,19.26
2018-03-23T04:45:08.473Z,19.23
2018-03-23T04:46:08.459Z,19.22
2018-03-23T04:47:08.444Z,19.32
2018-03-23T04:48:08.430Z,19.25
2018-03-23T04:49:08.435Z,19.19
2018-03-23T04:50:08.399Z,19.33
2018-03-23T04:51:08.386Z,19.33
2018-03-23T04:52:08.377Z,19.22
2018-03-23T04:53:08.355Z,19.28
2018-03-23T04:54:08.341Z,19.29
2018-03-23T04:55:08.337Z,19.23
2018-03-23T04:56:08.311Z,19.21
2018-03-23T04:57:08.297Z,19.33
2018-03-23T04:58:08.284Z,19.33
2018-03-23T04:59:08.270Z,19.28
2018-03-23T05:00:08.270Z,19.36
2018-03-23T05:01:08.237Z,19.33
2018-03-23T05:02:08.222Z,19.32
2018-03-23T05:03:08.207Z,19.36
2018-03-23T05:04:08.192Z,19.32
2018-03-23T05:05:08.178Z,19.39
2018-03-23T05:06:08.174Z,19.40
2018-03-23T05:07:08.149Z,19.41
2018-03-23T05:08:08.133Z,19.41
2018-03-23T05:09:08.119Z,19.47
2018-03-23T05:10:08.104Z,19.44
2018-03-23T05:11:08.106Z,19.58
2018-03-23T05:12:08.073Z,19.54
2018-03-23T05:13:08.066Z,19.59
2018-03-23T05:14:08.045Z,19.65
2018-03-23T05:15:08.031Z,19.61
2018-03-23T05:16:08.016Z,19.62
2018-03-23T05:17:08.018Z,19.62
2018-03-23T05:18:07.986Z,19.76
2018-03-23T05:19:07.971Z,19.76
2018-03-23T05:20:07.959Z,19.92
2018-03-23T05:21:07.941Z,19.95
2018-03-23T05:22:07.933Z,20.08
2018-03-23T05:23:07.924Z,20.01
2018-03-23T05:24:07.897Z,20.05
2018-03-23T05:25:07.887Z,20.06
2018-03-23T05:26:07.867Z,20.05
2018-03-23T05:27:07.854Z,20.08
2018-03-23T05:28:07.848Z,20.05
2018-03-23T05:29:07.823Z,20.10
2018-03-23T05:30:07.809Z,20.08
2018-03-23T05:31:07.797Z,20.08
2018-03-23T05:32:07.781Z,20.08
2018-03-23T05:33:07.800Z,20.08
2018-03-23T05:34:07.752Z,20.06
2018-03-23T05:35:07.736Z,20.03
2018-03-23T05:36:07.721Z,20.08
2018-03-23T05:37:07.707Z,20.16
2018-03-23T05:38:07.693Z,20.05
2018-03-23T05:39:07.694Z,20.06
2018-03-23T05:40:07.666Z,20.03
2018-03-23T05:41:07.650Z,20.05
2018-03-23T05:42:07.635Z,20.10
2018-03-23T05:43:07.622Z,20.01
2018-03-23T05:44:07.620Z,19.98
2018-03-23T05:45:07.596Z,20.01
2018-03-23T05:46:07.581Z,20.02
2018-03-23T05:47:07.564Z,20.02
2018-03-23T05:48:07.546Z,20.03
2018-03-23T05:49:07.532Z,20.02
2018-03-23T05:50:07.532Z,19.92
2018-03-23T05:51:07.504Z,19.96
2018-03-23T05:52:07.490Z,20.03
2018-03-23T05:53:07.475Z,19.94
2018-03-23T05:54:07.462Z,19.92
2018-03-23T05:55:07.468Z,19.95
2018-03-23T05:56:07.433Z,19.86
2018-03-23T05:57:07.423Z,19.83
2018-03-23T05:58:07.403Z,19.81
2018-03-23T05:59:07.388Z,19.87
2018-03-23T06:00:07.383Z,19.88
2018-03-23T06:01:07.369Z,19.84
2018-03-23T06:02:07.346Z,19.86
2018-03-23T06:03:07.330Z,19.87
2018-03-23T06:04:07.315Z,19.80
2018-03-23T06:05:07.300Z,19.78
2018-03-23T06:06:07.305Z,19.76
2018-03-23T06:07:07.278Z,19.78
2018-03-23T06:08:07.267Z,19.77
2018-03-23T06:09:07.242Z,19.81
2018-03-23T06:10:07.231Z,19.77
2018-03-23T06:11:07.219Z,19.81
2018-03-23T06:12:07.228Z,19.69
2018-03-23T06:13:07.185Z,19.86
2018-03-23T06:14:07.173Z,19.73
2018-03-23T06:15:07.159Z,19.68
2018-03-23T06:16:07.141Z,19.73
2018-03-23T06:17:07.126Z,19.76
2018-03-23T06:18:07.127Z,19.74
2018-03-23T06:19:07.097Z,19.71
2018-03-23T06:20:07.083Z,19.68
2018-03-23T06:21:07.109Z,19.73
2018-03-23T06:22:07.057Z,19.63
2018-03-23T06:23:07.052Z,19.63
2018-03-23T06:24:07.025Z,19.65
2018-03-23T06:25:07.018Z,19.69
2018-03-23T06:26:06.994Z,19.66
2018-03-23T06:27:06.980Z,19.69
2018-03-23T06:28:06.992Z,19.59
2018-03-23T06:29:06.952Z,19.63
2018-03-23T06:30:06.942Z,19.58
2018-03-23T06:31:06.923Z,19.61
2018-03-23T06:32:06.906Z,19.59
2018-03-23T06:33:06.895Z,19.59
2018-03-23T06:34:06.896Z,19.63
2018-03-23T06:35:06.868Z,19.62
2018-03-23T06:36:06.854Z,19.51
2018-03-23T06:37:06.836Z,19.56
2018-03-23T06:38:06.821Z,19.50
2018-03-23T06:39:06.808Z,19.54
2018-03-23T06:40:06.805Z,19.48
2018-03-23T06:41:06.776Z,19.55
2018-03-23T06:42:06.762Z,19.54
2018-03-23T06:43:06.748Z,19.56
2018-03-23T06:44:06.730Z,19.54
2018-03-23T06:45:06.740Z,19.54
2018-03-23T06:46:06.704Z,19.50
2018-03-23T06:47:06.694Z,19.46
2018-03-23T06:48:06.674Z,19.58
2018-03-23T06:49:06.657Z,19.44
2018-03-23T06:50:06.645Z,19.48
2018-03-23T06:51:06.651Z,19.41
2018-03-23T06:52:06.619Z,19.48
2018-03-23T06:53:06.601Z,19.54
2018-03-23T06:54:06.587Z,19.46
2018-03-23T06:55:06.574Z,19.46
2018-03-23T06:56:06.556Z,19.44
2018-03-23T06:57:06.553Z,19.50
2018-03-23T06:58:06.535Z,19.47
2018-03-23T06:59:06.514Z,19.43
2018-03-23T07:00:06.498Z,19.31
2018-03-23T07:01:06.483Z,19.29
2018-03-23T07:02:06.492Z,19.39
2018-03-23T07:03:06.465Z,19.41
2018-03-23T07:04:06.438Z,19.37
2018-03-23T07:05:06.426Z,19.29
2018-03-23T07:06:06.415Z,19.32
2018-03-23T07:07:06.396Z,19.36
2018-03-23T07:08:06.391Z,19.37
2018-03-23T07:09:06.365Z,19.36
2018-03-23T07:10:06.352Z,19.37
2018-03-23T07:11:06.342Z,19.40
2018-03-23T07:12:06.321Z,19.36
2018-03-23T07:13:06.323Z,19.32
2018-03-23T07:14:06.297Z,19.32
2018-03-23T07:15:06.278Z,19.23
2018-03-23T07:16:06.261Z,19.28
2018-03-23T07:17:06.247Z,19.25
2018-03-23T07:18:06.235Z,19.33
2018-03-23T07:19:06.232Z,19.22
2018-03-23T07:20:06.205Z,19.23
2018-03-23T07:21:06.193Z,19.21
2018-03-23T07:22:06.174Z,19.33
2018-03-23T07:23:06.162Z,19.23
2018-03-23T07:24:06.156Z,19.22
2018-03-23T07:25:06.136Z,19.23
2018-03-23T07:26:06.116Z,19.25
2018-03-23T07:27:06.102Z,19.31
2018-03-23T07:28:06.086Z,19.29
2018-03-23T07:29:06.100Z,19.28
2018-03-23T07:30:06.057Z,19.28
2018-03-23T07:31:06.041Z,19.26
2018-03-23T07:32:06.027Z,19.31
2018-03-23T07:33:06.015Z,19.29
2018-03-23T07:34:05.997Z,19.21
2018-03-23T07:35:05.997Z,19.31
2018-03-23T07:36:05.963Z,19.28
2018-03-23T07:37:05.952Z,19.31
2018-03-23T07:38:05.943Z,19.25
2018-03-23T07:39:05.926Z,19.28
2018-03-23T07:40:05.924Z,19.26
2018-03-23T07:41:05.895Z,19.22
2018-03-23T07:42:05.879Z,19.16
2018-03-23T07:43:05.867Z,19.19
2018-03-23T07:44:05.849Z,19.29
2018-03-23T07:45:05.839Z,19.28
2018-03-23T07:46:05.838Z,19.23
2018-03-23T07:47:05.806Z,19.16
2018-03-23T07:48:05.795Z,19.21
2018-03-23T07:49:05.777Z,19.16
2018-03-23T07:50:05.770Z,19.23
2018-03-23T07:51:05.746Z,19.13
2018-03-23T07:52:05.745Z,19.21
2018-03-23T07:53:05.718Z,19.13
2018-03-23T07:54:05.703Z,19.14
2018-03-23T07:55:05.689Z,19.19
2018-03-23T07:56:05.672Z,19.25
2018-03-23T07:57:05.677Z,19.18
2018-03-23T07:58:05.643Z,19.18
2018-03-23T07:59:05.631Z,19.22
2018-03-23T08:00:05.616Z,19.22
2018-03-23T08:01:05.600Z,19.16
2018-03-23T08:02:05.584Z,19.16
2018-03-23T08:03:05.585Z,19.16
2018-03-23T08:04:05.554Z,19.14
2018-03-23T08:05:05.539Z,19.18
2018-03-23T08:06:05.528Z,19.13
2018-03-23T08:07:05.540Z,19.19
2018-03-23T08:08:05.519Z,19.19
2018-03-23T08:09:05.479Z,19.22
2018-03-23T08:10:05.467Z,19.14
2018-03-23T08:11:05.451Z,19.07
2018-03-23T08:12:05.440Z,19.07
2018-03-23T08:13:05.423Z,19.07
2018-03-23T08:14:05.426Z,19.16
2018-03-23T08:15:05.394Z,19.11
2018-03-23T08:16:05.381Z,19.06
2018-03-23T08:17:05.365Z,19.08
2018-03-23T08:18:05.349Z,19.06
2018-03-23T08:19:05.334Z,19.06
2018-03-23T08:20:05.329Z,19.08
2018-03-23T08:21:05.302Z,19.10
2018-03-23T08:22:05.288Z,19.16
2018-03-23T08:23:05.274Z,19.04
2018-03-23T08:24:05.261Z,19.10
2018-03-23T08:25:05.266Z,19.07
2018-03-23T08:26:05.230Z,19.07
2018-03-23T08:27:05.214Z,19.13
2018-03-23T08:28:05.200Z,19.13
2018-03-23T08:29:05.185Z,19.19
2018-03-23T08:30:05.168Z,19.13
2018-03-23T08:31:05.169Z,19.16
2018-03-23T08:32:05.139Z,19.18
2018-03-23T08:33:05.131Z,19.18
2018-03-23T08:34:05.113Z,19.08
2018-03-23T08:35:05.098Z,19.16
2018-03-23T08:36:05.099Z,19.13
2018-03-23T08:37:05.066Z,19.16
2018-03-23T08:38:05.055Z,19.16
2018-03-23T08:39:05.037Z,19.16
2018-03-23T08:40:05.023Z,19.18
2018-03-23T08:41:05.006Z,19.21
2018-03-23T08:42:05.005Z,19.16
2018-03-23T08:43:04.978Z,19.13
2018-03-23T08:44:04.961Z,19.16
2018-03-23T08:45:04.947Z,19.14
2018-03-23T08:46:04.934Z,19.13
2018-03-23T08:47:04.944Z,19.23
2018-03-23T08:48:04.926Z,19.18
2018-03-23T08:49:04.890Z,19.22
2018-03-23T08:50:04.876Z,19.22
2018-03-23T08:51:04.858Z,19.29
2018-03-23T08:52:04.844Z,19.22
2018-03-23T08:53:04.843Z,19.22
2018-03-23T08:54:04.814Z,19.25
2018-03-23T08:55:04.799Z,19.21
2018-03-23T08:56:04.785Z,19.29
2018-03-23T08:57:04.774Z,19.21
2018-03-23T08:58:04.777Z,19.25
2018-03-23T08:59:04.740Z,19.36
2018-03-23T09:00:04.724Z,19.28
2018-03-23T09:01:04.710Z,19.33
2018-03-23T09:02:04.715Z,19.32
2018-03-23T09:03:04.682Z,19.32
2018-03-23T09:04:04.678Z,19.32
2018-03-23T09:05:04.654Z,19.33
2018-03-23T09:06:04.637Z,19.37
2018-03-23T09:07:04.630Z,19.29
2018-03-23T09:08:04.608Z,19.37
2018-03-23T09:09:04.613Z,19.36
2018-03-23T09:10:04.580Z,19.37
2018-03-23T09:11:04.564Z,19.33
2018-03-23T09:12:04.553Z,19.31
2018-03-23T09:13:04.545Z,19.32
2018-03-23T09:14:04.521Z,19.33
2018-03-23T09:15:04.516Z,19.36
2018-03-23T09:16:04.489Z,19.37
2018-03-23T09:17:04.478Z,19.36
2018-03-23T09:18:04.459Z,19.40
2018-03-23T09:19:04.446Z,19.32
2018-03-23T09:20:04.451Z,19.37
2018-03-23T09:21:04.419Z,19.39
2018-03-23T09:22:04.402Z,19.36
2018-03-23T09:23:04.384Z,19.36
2018-03-23T09:24:04.372Z,19.29
2018-03-23T09:25:04.358Z,19.40
2018-03-23T09:26:04.358Z,19.37
2018-03-23T09:27:04.328Z,19.33
2018-03-23T09:28:04.314Z,19.33
2018-03-23T09:29:04.299Z,19.32
2018-03-23T09:30:04.285Z,19.37
2018-03-23T09:31:04.287Z,19.32
2018-03-23T09:32:04.256Z,19.39
2018-03-23T09:33:04.243Z,19.33
2018-03-23T09:34:04.229Z,19.33
2018-03-23T09:35:04.218Z,19.36
2018-03-23T09:36:04.211Z,19.37
2018-03-23T09:37:04.186Z,19.33
2018-03-23T09:38:04.165Z,19.36
2018-03-23T09:39:04.151Z,19.32
2018-03-23T09:40:04.137Z,19.32
2018-03-23T09:41:04.135Z,19.33
2018-03-23T09:42:04.109Z,19.33
2018-03-23T09:43:04.094Z,19.28
2018-03-23T09:44:04.096Z,19.43
2018-03-23T09:45:04.062Z,19.41
2018-03-23T09:46:04.070Z,19.36
2018-03-23T09:47:04.034Z,19.33
2018-03-23T09:48:04.016Z,19.43
2018-03-23T09:49:04.004Z,19.29
2018-03-23T09:50:03.992Z,19.39
2018-03-23T09:51:03.979Z,19.26
2018-03-23T09:52:03.983Z,19.33
2018-03-23T09:53:03.946Z,19.39
2018-03-23T09:54:03.934Z,19.40
2018-03-23T09:55:03.916Z,19.44
2018-03-23T09:56:03.903Z,19.41
2018-03-23T09:57:03.884Z,19.43
2018-03-23T09:58:03.883Z,19.32
2018-03-23T09:59:03.859Z,19.44
2018-03-23T10:00:03.843Z,19.28
2018-03-23T10:01:03.829Z,19.40
2018-03-23T10:02:03.814Z,19.44
2018-03-23T10:03:03.814Z,19.46
2018-03-23T10:04:03.870Z,19.43
2018-03-23T10:05:03.771Z,19.41
2018-03-23T10:06:03.755Z,19.32
2018-03-23T10:07:03.741Z,19.29
2018-03-23T10:08:03.725Z,19.33
2018-03-23T10:09:03.720Z,19.36
2018-03-23T10:10:03.699Z,19.36
2018-03-23T10:11:03.681Z,19.32
2018-03-23T10:12:03.671Z,19.37
2018-03-23T10:13:03.653Z,19.25
2018-03-23T10:14:03.651Z,19.31
2018-03-23T10:15:03.625Z,19.37
2018-03-23T10:16:03.608Z,19.39
2018-03-23T10:17:03.594Z,19.36
2018-03-23T10:18:03.578Z,19.36
2018-03-23T10:19:03.600Z,19.40
2018-03-23T10:20:03.549Z,19.40
2018-03-23T10:21:03.539Z,19.40
2018-03-23T10:22:03.519Z,19.40
2018-03-23T10:23:03.506Z,19.36
2018-03-23T10:24:03.490Z,19.29
2018-03-23T10:25:03.502Z,19.36
2018-03-23T10:26:03.464Z,19.29
2018-03-23T10:27:03.448Z,19.40
2018-03-23T10:28:03.432Z,19.39
2018-03-23T10:29:03.465Z,19.36
2018-03-23T10:30:03.404Z,19.36
2018-03-23T10:31:03.400Z,19.32
2018-03-23T10:32:03.373Z,19.32
2018-03-23T10:33:03.358Z,19.36
2018-03-23T10:34:03.342Z,19.33
2018-03-23T10:35:03.330Z,19.37
2018-03-23T10:36:03.327Z,19.33
2018-03-23T10:37:03.303Z,19.40
2018-03-23T10:38:03.286Z,19.44
2018-03-23T10:39:03.271Z,19.48
2018-03-23T10:40:03.255Z,19.44
2018-03-23T10:41:03.258Z,19.41
2018-03-23T10:42:03.227Z,19.41
2018-03-23T10:43:03.212Z,19.44
2018-03-23T10:44:03.203Z,19.40
2018-03-23T10:45:03.184Z,19.41
2018-03-23T10:46:03.167Z,19.31
2018-03-23T10:47:03.174Z,19.37
2018-03-23T10:48:03.138Z,19.31
2018-03-23T10:49:03.122Z,19.40
2018-03-23T10:50:03.109Z,19.43
2018-03-23T10:51:03.093Z,19.41
2018-03-23T10:52:03.078Z,19.44
2018-03-23T10:53:03.074Z,19.40
2018-03-23T10:54:03.050Z,19.41
2018-03-23T10:55:03.034Z,19.40
2018-03-23T10:56:03.020Z,19.41
2018-03-23T10:57:03.007Z,19.50
2018-03-23T10:58:03.008Z,19.50
2018-03-23T10:59:02.975Z,19.44
2018-03-23T11:00:02.965Z,19.43
2018-03-23T11:01:02.946Z,19.47
2018-03-23T11:02:02.932Z,19.46
2018-03-23T11:03:02.921Z,19.44
2018-03-23T11:04:02.914Z,19.43
2018-03-23T11:05:02.889Z,19.37
2018-03-23T11:06:02.871Z,19.43
2018-03-23T11:07:02.862Z,19.43
2018-03-23T11:08:02.843Z,19.46
2018-03-23T11:09:02.852Z,19.43
2018-03-23T11:10:02.815Z,19.43
2018-03-23T11:11:02.799Z,19.47
2018-03-23T11:12:02.784Z,19.43
2018-03-23T11:13:02.771Z,19.44
2018-03-23T11:14:02.760Z,19.43
2018-03-23T11:15:02.754Z,19.47
2018-03-23T11:16:02.726Z,19.32
2018-03-23T11:17:02.714Z,19.44
2018-03-23T11:18:02.698Z,19.41
2018-03-23T11:19:02.688Z,19.46
2018-03-23T11:20:02.686Z,19.47
2018-03-23T11:21:02.654Z,19.40
2018-03-23T11:22:02.640Z,19.47
2018-03-23T11:23:02.631Z,19.40
2018-03-23T11:24:02.610Z,19.44
2018-03-23T11:25:02.595Z,19.44
2018-03-23T11:26:02.590Z,19.46
2018-03-23T11:27:02.567Z,19.48
2018-03-23T11:28:02.554Z,19.55
2018-03-23T11:29:02.536Z,19.47
2018-03-23T11:30:02.529Z,19.43
2018-03-23T11:31:02.526Z,19.54
2018-03-23T11:32:02.492Z,19.44
2018-03-23T11:33:02.479Z,19.56
2018-03-23T11:34:02.474Z,19.51
2018-03-23T11:35:02.447Z,19.54
2018-03-23T11:36:02.433Z,19.55
2018-03-23T11:37:02.469Z,19.48
2018-03-23T11:38:02.405Z,19.58
2018-03-23T11:39:02.388Z,19.56
2018-03-23T11:40:02.374Z,19.56
2018-03-23T11:41:02.360Z,19.43
2018-03-23T11:42:02.349Z,19.56
2018-03-23T11:43:02.344Z,19.43
2018-03-23T11:44:02.311Z,19.56
2018-03-23T11:45:02.302Z,19.54
2018-03-23T11:46:02.293Z,19.47
2018-03-23T11:47:02.274Z,19.50
2018-03-23T11:48:02.270Z,19.55
2018-03-23T11:49:02.244Z,19.50
2018-03-23T11:50:02.238Z,19.54
2018-03-23T11:51:02.213Z,19.50
2018-03-23T11:52:02.199Z,19.55
2018-03-23T11:53:02.204Z,19.51
2018-03-23T11:54:02.171Z,19.55
2018-03-23T11:55:02.164Z,19.55
2018-03-23T11:56:02.142Z,19.56
2018-03-23T11:57:02.126Z,19.46
2018-03-23T11:58:02.113Z,19.56
2018-03-23T11:59:02.121Z,19.46
2018-03-23T12:00:02.084Z,19.54
2018-03-23T12:01:02.070Z,19.54
2018-03-23T12:02:02.063Z,19.54
2018-03-23T12:03:02.040Z,19.46
2018-03-23T12:04:02.024Z,19.46
2018-03-23T12:05:02.024Z,19.50
2018-03-23T12:06:01.994Z,19.44
2018-03-23T12:07:01.980Z,19.47
2018-03-23T12:08:01.988Z,19.44
2018-03-23T12:09:01.951Z,19.47
2018-03-23T12:10:01.963Z,19.46
2018-03-23T12:11:01.923Z,19.43
2018-03-23T12:12:01.907Z,19.46
2018-03-23T12:13:01.891Z,19.40
2018-03-23T12:14:01.877Z,19.41
2018-03-23T12:15:01.868Z,19.44
2018-03-23T12:16:01.861Z,19.32
2018-03-23T12:17:01.835Z,19.32
2018-03-23T12:18:01.820Z,19.36
2018-03-23T12:19:01.804Z,19.29
2018-03-23T12:20:01.798Z,19.33
2018-03-23T12:21:01.792Z,19.29
2018-03-23T12:22:01.758Z,19.36
2018-03-23T12:23:01.749Z,19.37
2018-03-23T12:24:01.728Z,19.39
2018-03-23T12:25:01.717Z,19.39
2018-03-23T12:26:01.706Z,19.33
2018-03-23T12:27:01.705Z,19.39
2018-03-23T12:28:01.672Z,19.37
2018-03-23T12:29:01.657Z,19.39
2018-03-23T12:30:01.646Z,19.32
2018-03-23T12:31:01.631Z,19.25
2018-03-23T12:32:01.661Z,19.33
2018-03-23T12:33:01.598Z,19.32
2018-03-23T12:34:01.592Z,19.36
2018-03-23T12:35:01.570Z,19.19
2018-03-23T12:36:01.554Z,19.25
2018-03-23T12:37:01.542Z,19.28
2018-03-23T12:38:01.631Z,19.25
2018-03-23T12:39:01.515Z,19.28
2018-03-23T12:40:01.497Z,19.23
2018-03-23T12:41:01.487Z,19.28
2018-03-23T12:42:01.474Z,19.22
2018-03-23T12:43:01.454Z,19.29
2018-03-23T12:44:01.450Z,19.23
2018-03-23T12:45:01.424Z,19.25
2018-03-23T12:46:01.412Z,19.19
2018-03-23T12:47:01.394Z,19.23
2018-03-23T12:48:01.380Z,19.31
2018-03-23T12:49:01.393Z,19.25
2018-03-23T12:50:01.380Z,19.26
2018-03-23T12:51:01.374Z,19.23
2018-03-23T12:52:01.318Z,19.28